Antoine, Arkansas
Current Conditions -  °F | °C
As of 5:06 AM on Saturday 25 Oct 2014 (Local Time) from KADF Reporting Station
Moderate Fog Moderate Fog  
Wind Chill: 54°   Ceiling: 200
Heat Index: 54°   Visibility: 0.25mi
Dew Point: 54°   Wind: 0mph
Humidity: 100%   Direction: NA
Pressure: 30.13"   Gusts: NA
Location:  34.04°N, 93.42°W
Report Text: KADF 251006Z AUTO 00000KT 1/4SM FG OVC002 12/12 A3013 RMK AO2
Loading
Personal Weather Stations






























Interactive Weather Map
Tropical Storm Tracking
New forecast layout! Learn more

10-Day Weather Forecast

Advertisements
Track Severe Weather on mobile